aviador You're here:

KVDF Decoded Metar

TAMPA/VANDENBURG in FL, USA
Report Time2017-04-25 20:15:00
UTC Time2017-04-25 20:12:59
Flight Rules vfr VFR
Wind300° at 11 Gusting to 18 kt
W.Decomp.*RWY 36: 6.2 kt HW 9.1 kt LCW
RWY 23: 3.0 kt HW 10.6 kt RCW
W.Rank300° ranks 30
Current wind is above 300° avg. (5.7)
Visibility9999 m
Phenomena:N/A
Clouds:Broken 050 Hf
Expected CloudBase > 6,400 ft AGL from Temp-Dew spread
Ceiling5,000 ft
Temp27°C (ISA +12)
Dew Point11°C (37% RH)
Heat Index26.7°C
AAT23.4°C
QNH1010 hPa
Density Alt1,690 ft
Elevation23 ft
Report Wrong Elevation
Raw Report
METAR KVDF 252015Z AUTO 30011G18KT 10SM BKN050 27/11 A2984 RMK AO2=

Extra information for KVDF:More info

Metar Taf Metar & Taf Last 4 Metars F.Rules Stats Wind Profile Meteogram Temp Stats Airport Information Weather charts Add Link Nearby VenuesMetar ALERT Operation Metar Decoded Social comments

AIRNAV info for KVDF